sensor_id;sensor_type;location;lat;lon;timestamp;P1;durP1;ratioP1;P2;durP2;ratioP2
51036;SDS011;37064;59.346;18.058;2023-01-10T00:00:46;6.60;;;3.55;;
51036;SDS011;37064;59.346;18.058;2023-01-10T00:03:12;8.07;;;4.65;;
51036;SDS011;37064;59.346;18.058;2023-01-10T00:05:38;6.50;;;4.75;;
51036;SDS011;37064;59.346;18.058;2023-01-10T00:08:05;10.27;;;4.95;;
51036;SDS011;37064;59.346;18.058;2023-01-10T00:10:32;7.90;;;4.07;;
51036;SDS011;37064;59.346;18.058;2023-01-10T00:12:58;6.25;;;3.75;;
51036;SDS011;37064;59.346;18.058;2023-01-10T00:15:43;5.90;;;4.05;;
51036;SDS011;37064;59.346;18.058;2023-01-10T00:18:09;6.80;;;3.58;;
51036;SDS011;37064;59.346;18.058;2023-01-10T00:20:35;7.43;;;4.25;;
51036;SDS011;37064;59.346;18.058;2023-01-10T00:23:01;9.63;;;4.13;;
51036;SDS011;37064;59.346;18.058;2023-01-10T00:25:28;6.63;;;3.75;;
51036;SDS011;37064;59.346;18.058;2023-01-10T00:27:57;9.15;;;4.72;;
51036;SDS011;37064;59.346;18.058;2023-01-10T00:30:46;7.47;;;3.95;;
51036;SDS011;37064;59.346;18.058;2023-01-10T00:33:13;6.03;;;4.22;;
51036;SDS011;37064;59.346;18.058;2023-01-10T00:35:45;6.63;;;3.65;;
51036;SDS011;37064;59.346;18.058;2023-01-10T00:38:11;7.80;;;4.38;;
51036;SDS011;37064;59.346;18.058;2023-01-10T00:40:38;6.18;;;4.05;;
51036;SDS011;37064;59.346;18.058;2023-01-10T00:43:04;5.93;;;4.03;;
51036;SDS011;37064;59.346;18.058;2023-01-10T00:45:49;7.55;;;4.00;;
51036;SDS011;37064;59.346;18.058;2023-01-10T00:48:15;8.38;;;4.32;;
51036;SDS011;37064;59.346;18.058;2023-01-10T00:50:41;6.38;;;3.88;;
51036;SDS011;37064;59.346;18.058;2023-01-10T00:53:08;8.80;;;4.45;;
51036;SDS011;37064;59.346;18.058;2023-01-10T00:55:34;7.25;;;3.80;;
51036;SDS011;37064;59.346;18.058;2023-01-10T00:58:00;6.57;;;3.90;;
51036;SDS011;37064;59.346;18.058;2023-01-10T01:00:26;9.02;;;4.60;;
51036;SDS011;37064;59.346;18.058;2023-01-10T01:02:52;5.85;;;3.70;;
51036;SDS011;37064;59.346;18.058;2023-01-10T01:05:19;7.50;;;3.75;;
51036;SDS011;37064;59.346;18.058;2023-01-10T01:07:49;7.57;;;4.07;;
51036;SDS011;37064;59.346;18.058;2023-01-10T01:10:15;14.50;;;5.13;;
51036;SDS011;37064;59.346;18.058;2023-01-10T01:12:51;8.13;;;4.35;;
51036;SDS011;37064;59.346;18.058;2023-01-10T01:15:17;8.75;;;4.75;;
51036;SDS011;37064;59.346;18.058;2023-01-10T01:17:43;7.95;;;4.43;;
51036;SDS011;37064;59.346;18.058;2023-01-10T01:20:09;8.73;;;4.00;;
51036;SDS011;37064;59.346;18.058;2023-01-10T01:22:35;11.18;;;4.88;;
51036;SDS011;37064;59.346;18.058;2023-01-10T01:25:02;6.82;;;4.22;;
51036;SDS011;37064;59.346;18.058;2023-01-10T01:27:28;6.20;;;3.88;;
51036;SDS011;37064;59.346;18.058;2023-01-10T01:29:55;6.72;;;4.05;;
51036;SDS011;37064;59.346;18.058;2023-01-10T01:32:21;6.63;;;4.05;;
51036;SDS011;37064;59.346;18.058;2023-01-10T01:34:47;10.85;;;4.35;;
51036;SDS011;37064;59.346;18.058;2023-01-10T01:37:13;6.43;;;3.95;;
51036;SDS011;37064;59.346;18.058;2023-01-10T01:39:40;7.85;;;3.97;;
51036;SDS011;37064;59.346;18.058;2023-01-10T01:42:12;5.75;;;3.45;;
51036;SDS011;37064;59.346;18.058;2023-01-10T01:44:44;8.00;;;4.38;;
51036;SDS011;37064;59.346;18.058;2023-01-10T01:47:20;5.85;;;3.45;;
51036;SDS011;37064;59.346;18.058;2023-01-10T01:49:49;8.60;;;3.25;;
51036;SDS011;37064;59.346;18.058;2023-01-10T01:52:21;5.22;;;3.00;;
51036;SDS011;37064;59.346;18.058;2023-01-10T01:54:50;5.22;;;3.15;;
51036;SDS011;37064;59.346;18.058;2023-01-10T01:57:17;5.38;;;3.45;;
51036;SDS011;37064;59.346;18.058;2023-01-10T01:59:46;4.05;;;2.85;;
51036;SDS011;37064;59.346;18.058;2023-01-10T02:02:14;4.65;;;2.90;;
51036;SDS011;37064;59.346;18.058;2023-01-10T02:04:49;4.47;;;2.70;;
51036;SDS011;37064;59.346;18.058;2023-01-10T02:07:16;4.72;;;3.22;;
51036;SDS011;37064;59.346;18.058;2023-01-10T02:09:44;5.38;;;3.33;;
51036;SDS011;37064;59.346;18.058;2023-01-10T02:12:10;4.90;;;2.85;;
51036;SDS011;37064;59.346;18.058;2023-01-10T02:14:38;4.40;;;2.45;;
51036;SDS011;37064;59.346;18.058;2023-01-10T02:17:07;6.03;;;2.72;;
51036;SDS011;37064;59.346;18.058;2023-01-10T02:35:02;5.28;;;3.08;;
51036;SDS011;37064;59.346;18.058;2023-01-10T02:45:11;3.92;;;2.70;;
51036;SDS011;37064;59.346;18.058;2023-01-10T02:47:39;3.08;;;1.70;;
51036;SDS011;37064;59.346;18.058;2023-01-10T02:52:50;3.13;;;2.03;;
51036;SDS011;37064;59.346;18.058;2023-01-10T02:55:16;2.85;;;1.85;;
51036;SDS011;37064;59.346;18.058;2023-01-10T02:57:50;2.03;;;1.50;;
51036;SDS011;37064;59.346;18.058;2023-01-10T03:00:35;2.83;;;1.70;;
51036;SDS011;37064;59.346;18.058;2023-01-10T03:10:28;2.38;;;1.70;;
51036;SDS011;37064;59.346;18.058;2023-01-10T03:15:26;2.25;;;1.60;;
51036;SDS011;37064;59.346;18.058;2023-01-10T03:17:54;2.78;;;1.48;;
51036;SDS011;37064;59.346;18.058;2023-01-10T03:20:21;2.33;;;1.30;;
51036;SDS011;37064;59.346;18.058;2023-01-10T03:22:48;1.45;;;1.20;;
51036;SDS011;37064;59.346;18.058;2023-01-10T03:25:15;2.45;;;1.60;;
51036;SDS011;37064;59.346;18.058;2023-01-10T03:32:45;2.38;;;1.33;;
51036;SDS011;37064;59.346;18.058;2023-01-10T03:35:11;1.67;;;1.20;;
51036;SDS011;37064;59.346;18.058;2023-01-10T03:37:43;1.92;;;1.20;;
51036;SDS011;37064;59.346;18.058;2023-01-10T03:40:14;1.58;;;1.02;;
51036;SDS011;37064;59.346;18.058;2023-01-10T03:42:44;1.08;;;0.80;;
51036;SDS011;37064;59.346;18.058;2023-01-10T03:45:35;1.73;;;1.07;;
51036;SDS011;37064;59.346;18.058;2023-01-10T03:48:04;1.55;;;0.80;;
51036;SDS011;37064;59.346;18.058;2023-01-10T03:50:32;2.42;;;1.10;;
51036;SDS011;37064;59.346;18.058;2023-01-10T03:52:59;1.40;;;0.98;;
51036;SDS011;37064;59.346;18.058;2023-01-10T03:55:26;1.25;;;0.90;;
51036;SDS011;37064;59.346;18.058;2023-01-10T03:57:53;1.20;;;0.90;;
51036;SDS011;37064;59.346;18.058;2023-01-10T04:00:19;1.50;;;0.80;;
51036;SDS011;37064;59.346;18.058;2023-01-10T04:02:45;1.00;;;0.90;;
51036;SDS011;37064;59.346;18.058;2023-01-10T04:05:11;1.92;;;1.10;;
51036;SDS011;37064;59.346;18.058;2023-01-10T04:07:38;1.48;;;0.80;;
51036;SDS011;37064;59.346;18.058;2023-01-10T04:10:04;1.73;;;0.80;;
51036;SDS011;37064;59.346;18.058;2023-01-10T04:12:30;1.73;;;0.82;;
51036;SDS011;37064;59.346;18.058;2023-01-10T04:14:56;1.75;;;1.08;;
51036;SDS011;37064;59.346;18.058;2023-01-10T04:17:22;0.85;;;0.73;;
51036;SDS011;37064;59.346;18.058;2023-01-10T04:19:48;1.05;;;0.75;;
51036;SDS011;37064;59.346;18.058;2023-01-10T04:22:14;1.98;;;1.10;;
51036;SDS011;37064;59.346;18.058;2023-01-10T04:24:40;1.67;;;1.00;;
51036;SDS011;37064;59.346;18.058;2023-01-10T04:27:08;1.08;;;0.80;;
51036;SDS011;37064;59.346;18.058;2023-01-10T04:29:34;1.52;;;0.90;;
51036;SDS011;37064;59.346;18.058;2023-01-10T04:32:00;1.15;;;0.77;;
51036;SDS011;37064;59.346;18.058;2023-01-10T04:34:26;1.30;;;0.98;;
51036;SDS011;37064;59.346;18.058;2023-01-10T04:36:52;1.83;;;1.10;;
51036;SDS011;37064;59.346;18.058;2023-01-10T04:39:18;2.47;;;1.10;;
51036;SDS011;37064;59.346;18.058;2023-01-10T04:41:44;1.90;;;1.10;;
51036;SDS011;37064;59.346;18.058;2023-01-10T04:44:10;1.30;;;1.00;;
51036;SDS011;37064;59.346;18.058;2023-01-10T04:46:36;1.75;;;0.85;;
51036;SDS011;37064;59.346;18.058;2023-01-10T04:49:02;2.67;;;1.30;;
51036;SDS011;37064;59.346;18.058;2023-01-10T04:51:29;2.05;;;1.30;;
51036;SDS011;37064;59.346;18.058;2023-01-10T04:53:55;1.00;;;0.90;;
51036;SDS011;37064;59.346;18.058;2023-01-10T04:56:21;2.70;;;1.13;;
51036;SDS011;37064;59.346;18.058;2023-01-10T04:58:48;1.65;;;1.35;;
51036;SDS011;37064;59.346;18.058;2023-01-10T05:01:32;2.28;;;1.45;;
51036;SDS011;37064;59.346;18.058;2023-01-10T05:04:01;1.55;;;1.30;;
51036;SDS011;37064;59.346;18.058;2023-01-10T05:06:27;2.90;;;1.55;;
51036;SDS011;37064;59.346;18.058;2023-01-10T05:08:53;1.00;;;0.90;;
51036;SDS011;37064;59.346;18.058;2023-01-10T05:11:19;1.27;;;0.98;;
51036;SDS011;37064;59.346;18.058;2023-01-10T05:13:45;2.20;;;1.08;;
51036;SDS011;37064;59.346;18.058;2023-01-10T05:16:11;2.50;;;2.13;;
51036;SDS011;37064;59.346;18.058;2023-01-10T05:18:37;1.98;;;1.13;;
51036;SDS011;37064;59.346;18.058;2023-01-10T05:21:12;1.85;;;1.10;;
51036;SDS011;37064;59.346;18.058;2023-01-10T05:23:39;1.98;;;1.23;;
51036;SDS011;37064;59.346;18.058;2023-01-10T05:26:05;2.45;;;1.38;;
51036;SDS011;37064;59.346;18.058;2023-01-10T05:28:32;1.70;;;1.10;;
51036;SDS011;37064;59.346;18.058;2023-01-10T05:30:58;1.40;;;1.13;;
51036;SDS011;37064;59.346;18.058;2023-01-10T05:33:24;3.17;;;1.17;;
51036;SDS011;37064;59.346;18.058;2023-01-10T05:35:50;2.50;;;1.58;;
51036;SDS011;37064;59.346;18.058;2023-01-10T05:38:16;2.42;;;1.08;;
51036;SDS011;37064;59.346;18.058;2023-01-10T05:40:42;1.50;;;1.02;;
51036;SDS011;37064;59.346;18.058;2023-01-10T05:43:08;2.20;;;1.50;;
51036;SDS011;37064;59.346;18.058;2023-01-10T05:45:36;2.28;;;1.33;;
51036;SDS011;37064;59.346;18.058;2023-01-10T05:48:02;2.63;;;1.58;;
51036;SDS011;37064;59.346;18.058;2023-01-10T05:50:28;2.33;;;1.42;;
51036;SDS011;37064;59.346;18.058;2023-01-10T05:52:54;3.60;;;1.40;;
51036;SDS011;37064;59.346;18.058;2023-01-10T05:55:22;3.45;;;1.77;;
51036;SDS011;37064;59.346;18.058;2023-01-10T05:57:47;2.28;;;1.27;;
51036;SDS011;37064;59.346;18.058;2023-01-10T06:00:14;3.08;;;1.63;;
51036;SDS011;37064;59.346;18.058;2023-01-10T06:02:40;2.85;;;1.60;;
51036;SDS011;37064;59.346;18.058;2023-01-10T06:05:06;2.33;;;1.50;;
51036;SDS011;37064;59.346;18.058;2023-01-10T06:07:32;3.38;;;1.23;;
51036;SDS011;37064;59.346;18.058;2023-01-10T06:09:58;4.45;;;1.95;;
51036;SDS011;37064;59.346;18.058;2023-01-10T06:12:24;4.10;;;1.48;;
51036;SDS011;37064;59.346;18.058;2023-01-10T06:14:50;2.67;;;1.55;;
51036;SDS011;37064;59.346;18.058;2023-01-10T06:17:16;2.70;;;1.60;;
51036;SDS011;37064;59.346;18.058;2023-01-10T06:19:42;2.83;;;1.88;;
51036;SDS011;37064;59.346;18.058;2023-01-10T06:22:08;2.75;;;1.60;;
51036;SDS011;37064;59.346;18.058;2023-01-10T06:24:34;2.70;;;1.67;;
51036;SDS011;37064;59.346;18.058;2023-01-10T06:27:00;2.92;;;1.92;;
51036;SDS011;37064;59.346;18.058;2023-01-10T06:29:26;3.00;;;1.58;;
51036;SDS011;37064;59.346;18.058;2023-01-10T06:31:52;2.05;;;1.80;;
51036;SDS011;37064;59.346;18.058;2023-01-10T06:34:18;2.55;;;1.73;;
51036;SDS011;37064;59.346;18.058;2023-01-10T06:36:44;2.85;;;2.30;;
51036;SDS011;37064;59.346;18.058;2023-01-10T06:39:10;4.63;;;2.00;;
51036;SDS011;37064;59.346;18.058;2023-01-10T06:41:36;7.10;;;2.70;;
51036;SDS011;37064;59.346;18.058;2023-01-10T06:44:02;4.82;;;2.53;;
51036;SDS011;37064;59.346;18.058;2023-01-10T06:46:28;3.70;;;2.10;;
51036;SDS011;37064;59.346;18.058;2023-01-10T06:48:54;3.70;;;2.10;;
51036;SDS011;37064;59.346;18.058;2023-01-10T06:51:20;6.13;;;2.65;;
51036;SDS011;37064;59.346;18.058;2023-01-10T06:53:46;2.75;;;1.92;;
51036;SDS011;37064;59.346;18.058;2023-01-10T06:56:12;4.93;;;2.40;;
51036;SDS011;37064;59.346;18.058;2023-01-10T06:58:38;6.63;;;2.53;;
51036;SDS011;37064;59.346;18.058;2023-01-10T07:01:14;5.75;;;3.17;;
51036;SDS011;37064;59.346;18.058;2023-01-10T07:03:41;5.32;;;2.38;;
51036;SDS011;37064;59.346;18.058;2023-01-10T07:06:07;5.70;;;3.00;;
51036;SDS011;37064;59.346;18.058;2023-01-10T07:08:35;6.97;;;3.15;;
51036;SDS011;37064;59.346;18.058;2023-01-10T07:11:01;5.40;;;3.55;;
51036;SDS011;37064;59.346;18.058;2023-01-10T07:13:27;5.50;;;3.70;;
51036;SDS011;37064;59.346;18.058;2023-01-10T07:16:00;5.30;;;2.92;;
51036;SDS011;37064;59.346;18.058;2023-01-10T07:18:26;6.45;;;3.30;;
51036;SDS011;37064;59.346;18.058;2023-01-10T07:20:52;8.32;;;4.47;;
51036;SDS011;37064;59.346;18.058;2023-01-10T07:23:19;7.28;;;3.53;;
51036;SDS011;37064;59.346;18.058;2023-01-10T07:25:45;7.05;;;3.88;;
51036;SDS011;37064;59.346;18.058;2023-01-10T07:28:11;8.30;;;3.78;;
51036;SDS011;37064;59.346;18.058;2023-01-10T07:30:37;7.80;;;3.58;;
51036;SDS011;37064;59.346;18.058;2023-01-10T07:33:03;5.93;;;3.28;;
51036;SDS011;37064;59.346;18.058;2023-01-10T07:35:30;10.88;;;4.32;;
51036;SDS011;37064;59.346;18.058;2023-01-10T07:37:57;6.03;;;3.65;;
51036;SDS011;37064;59.346;18.058;2023-01-10T07:40:23;6.65;;;4.13;;
51036;SDS011;37064;59.346;18.058;2023-01-10T07:42:54;6.68;;;3.55;;
51036;SDS011;37064;59.346;18.058;2023-01-10T07:45:20;8.48;;;3.88;;
51036;SDS011;37064;59.346;18.058;2023-01-10T07:47:46;5.43;;;3.67;;
51036;SDS011;37064;59.346;18.058;2023-01-10T07:50:12;6.10;;;3.92;;
51036;SDS011;37064;59.346;18.058;2023-01-10T07:52:38;6.28;;;3.65;;
51036;SDS011;37064;59.346;18.058;2023-01-10T07:55:04;6.65;;;3.30;;
51036;SDS011;37064;59.346;18.058;2023-01-10T07:57:30;6.32;;;4.15;;
51036;SDS011;37064;59.346;18.058;2023-01-10T07:59:56;4.63;;;3.15;;
51036;SDS011;37064;59.346;18.058;2023-01-10T08:02:22;6.75;;;3.38;;
51036;SDS011;37064;59.346;18.058;2023-01-10T08:04:48;5.20;;;3.28;;
51036;SDS011;37064;59.346;18.058;2023-01-10T08:07:14;4.53;;;2.90;;
51036;SDS011;37064;59.346;18.058;2023-01-10T08:09:40;4.75;;;2.88;;
51036;SDS011;37064;59.346;18.058;2023-01-10T08:12:06;5.18;;;2.67;;
51036;SDS011;37064;59.346;18.058;2023-01-10T08:14:32;3.50;;;2.50;;
51036;SDS011;37064;59.346;18.058;2023-01-10T08:16:59;5.43;;;2.78;;
51036;SDS011;37064;59.346;18.058;2023-01-10T08:19:25;3.50;;;2.28;;
51036;SDS011;37064;59.346;18.058;2023-01-10T08:21:51;4.20;;;3.08;;
51036;SDS011;37064;59.346;18.058;2023-01-10T08:24:17;6.03;;;2.60;;
51036;SDS011;37064;59.346;18.058;2023-01-10T08:26:43;3.83;;;2.60;;
51036;SDS011;37064;59.346;18.058;2023-01-10T08:29:09;3.47;;;2.47;;
51036;SDS011;37064;59.346;18.058;2023-01-10T08:31:35;3.80;;;2.50;;
51036;SDS011;37064;59.346;18.058;2023-01-10T08:34:01;3.00;;;2.22;;
51036;SDS011;37064;59.346;18.058;2023-01-10T08:36:27;3.47;;;2.38;;
51036;SDS011;37064;59.346;18.058;2023-01-10T08:38:54;5.43;;;2.85;;
51036;SDS011;37064;59.346;18.058;2023-01-10T08:41:20;4.47;;;2.38;;
51036;SDS011;37064;59.346;18.058;2023-01-10T08:43:49;8.25;;;2.33;;
51036;SDS011;37064;59.346;18.058;2023-01-10T08:46:15;3.15;;;2.42;;
51036;SDS011;37064;59.346;18.058;2023-01-10T08:48:41;3.55;;;2.42;;
51036;SDS011;37064;59.346;18.058;2023-01-10T08:51:08;4.15;;;2.35;;
51036;SDS011;37064;59.346;18.058;2023-01-10T08:53:34;3.90;;;2.45;;
51036;SDS011;37064;59.346;18.058;2023-01-10T08:56:01;4.75;;;2.60;;
51036;SDS011;37064;59.346;18.058;2023-01-10T08:58:27;4.32;;;2.78;;
51036;SDS011;37064;59.346;18.058;2023-01-10T09:00:53;4.32;;;2.50;;
51036;SDS011;37064;59.346;18.058;2023-01-10T09:03:19;4.38;;;2.55;;
51036;SDS011;37064;59.346;18.058;2023-01-10T09:05:45;3.33;;;2.50;;
51036;SDS011;37064;59.346;18.058;2023-01-10T09:08:11;3.05;;;2.00;;
51036;SDS011;37064;59.346;18.058;2023-01-10T09:10:37;4.43;;;2.40;;
51036;SDS011;37064;59.346;18.058;2023-01-10T09:13:03;3.30;;;2.25;;
51036;SDS011;37064;59.346;18.058;2023-01-10T09:15:31;2.88;;;1.90;;
51036;SDS011;37064;59.346;18.058;2023-01-10T09:17:58;2.78;;;1.92;;
51036;SDS011;37064;59.346;18.058;2023-01-10T09:20:25;5.82;;;3.15;;
51036;SDS011;37064;59.346;18.058;2023-01-10T09:22:52;5.18;;;2.60;;
51036;SDS011;37064;59.346;18.058;2023-01-10T09:25:18;3.33;;;2.42;;
51036;SDS011;37064;59.346;18.058;2023-01-10T09:27:44;4.47;;;2.85;;
51036;SDS011;37064;59.346;18.058;2023-01-10T09:30:10;4.88;;;3.30;;
51036;SDS011;37064;59.346;18.058;2023-01-10T09:32:36;4.43;;;2.90;;
51036;SDS011;37064;59.346;18.058;2023-01-10T09:35:03;5.00;;;3.05;;
51036;SDS011;37064;59.346;18.058;2023-01-10T09:37:29;6.32;;;3.78;;
51036;SDS011;37064;59.346;18.058;2023-01-10T09:39:57;7.82;;;3.60;;
51036;SDS011;37064;59.346;18.058;2023-01-10T09:42:26;5.25;;;3.50;;
51036;SDS011;37064;59.346;18.058;2023-01-10T09:45:01;6.90;;;3.58;;
51036;SDS011;37064;59.346;18.058;2023-01-10T09:47:40;5.57;;;3.28;;
51036;SDS011;37064;59.346;18.058;2023-01-10T09:52:39;7.05;;;3.85;;
51036;SDS011;37064;59.346;18.058;2023-01-10T09:57:45;7.33;;;4.00;;
51036;SDS011;37064;59.346;18.058;2023-01-10T10:00:15;4.47;;;3.00;;
51036;SDS011;37064;59.346;18.058;2023-01-10T10:02:43;5.25;;;3.30;;
51036;SDS011;37064;59.346;18.058;2023-01-10T10:05:26;8.13;;;3.85;;
51036;SDS011;37064;59.346;18.058;2023-01-10T10:07:56;10.98;;;5.35;;
51036;SDS011;37064;59.346;18.058;2023-01-10T10:10:24;15.70;;;7.47;;
51036;SDS011;37064;59.346;18.058;2023-01-10T10:15:19;9.23;;;4.20;;
51036;SDS011;37064;59.346;18.058;2023-01-10T10:20:38;7.68;;;4.03;;
51036;SDS011;37064;59.346;18.058;2023-01-10T10:23:26;6.80;;;4.10;;
51036;SDS011;37064;59.346;18.058;2023-01-10T10:38:50;4.97;;;3.22;;
51036;SDS011;37064;59.346;18.058;2023-01-10T10:41:26;6.43;;;3.88;;
51036;SDS011;37064;59.346;18.058;2023-01-10T10:43:54;5.13;;;2.88;;
51036;SDS011;37064;59.346;18.058;2023-01-10T10:46:27;4.57;;;2.90;;
51036;SDS011;37064;59.346;18.058;2023-01-10T10:48:58;5.55;;;3.05;;
51036;SDS011;37064;59.346;18.058;2023-01-10T10:53:50;4.82;;;2.38;;
51036;SDS011;37064;59.346;18.058;2023-01-10T10:56:18;4.63;;;3.05;;
51036;SDS011;37064;59.346;18.058;2023-01-10T10:58:45;5.22;;;2.15;;
51036;SDS011;37064;59.346;18.058;2023-01-10T11:01:13;5.57;;;2.65;;
51036;SDS011;37064;59.346;18.058;2023-01-10T11:03:47;3.40;;;2.20;;
51036;SDS011;37064;59.346;18.058;2023-01-10T11:06:14;5.72;;;2.47;;
51036;SDS011;37064;59.346;18.058;2023-01-10T11:08:42;3.45;;;2.65;;
51036;SDS011;37064;59.346;18.058;2023-01-10T11:11:31;6.53;;;3.40;;
51036;SDS011;37064;59.346;18.058;2023-01-10T11:13:56;4.38;;;3.00;;
51036;SDS011;37064;59.346;18.058;2023-01-10T11:16:24;6.75;;;2.50;;
51036;SDS011;37064;59.346;18.058;2023-01-10T11:19:07;4.43;;;2.45;;
51036;SDS011;37064;59.346;18.058;2023-01-10T11:21:34;3.85;;;2.30;;
51036;SDS011;37064;59.346;18.058;2023-01-10T11:24:00;4.63;;;2.78;;
51036;SDS011;37064;59.346;18.058;2023-01-10T11:26:30;6.75;;;2.72;;
51036;SDS011;37064;59.346;18.058;2023-01-10T11:29:21;5.38;;;2.90;;
51036;SDS011;37064;59.346;18.058;2023-01-10T11:31:49;4.55;;;3.08;;
51036;SDS011;37064;59.346;18.058;2023-01-10T11:34:27;5.22;;;3.35;;
51036;SDS011;37064;59.346;18.058;2023-01-10T11:36:56;6.38;;;3.17;;
51036;SDS011;37064;59.346;18.058;2023-01-10T11:39:22;5.47;;;3.05;;
51036;SDS011;37064;59.346;18.058;2023-01-10T11:41:48;6.07;;;3.90;;
51036;SDS011;37064;59.346;18.058;2023-01-10T11:46:46;7.60;;;3.85;;
51036;SDS011;37064;59.346;18.058;2023-01-10T11:49:14;6.88;;;3.58;;
51036;SDS011;37064;59.346;18.058;2023-01-10T11:51:50;6.70;;;3.83;;
51036;SDS011;37064;59.346;18.058;2023-01-10T11:54:20;6.00;;;4.40;;
51036;SDS011;37064;59.346;18.058;2023-01-10T11:56:54;8.13;;;4.32;;
51036;SDS011;37064;59.346;18.058;2023-01-10T11:59:20;6.10;;;4.00;;
51036;SDS011;37064;59.346;18.058;2023-01-10T12:01:51;8.38;;;5.07;;
51036;SDS011;37064;59.346;18.058;2023-01-10T12:04:19;9.38;;;4.55;;
51036;SDS011;37064;59.346;18.058;2023-01-10T12:06:46;7.60;;;4.45;;
51036;SDS011;37064;59.346;18.058;2023-01-10T12:12:01;8.98;;;4.75;;
51036;SDS011;37064;59.346;18.058;2023-01-10T12:14:27;7.70;;;4.32;;
51036;SDS011;37064;59.346;18.058;2023-01-10T12:16:57;6.45;;;4.10;;
51036;SDS011;37064;59.346;18.058;2023-01-10T12:19:23;7.25;;;3.88;;
51036;SDS011;37064;59.346;18.058;2023-01-10T12:21:49;8.02;;;3.88;;
51036;SDS011;37064;59.346;18.058;2023-01-10T12:24:48;6.32;;;4.07;;
51036;SDS011;37064;59.346;18.058;2023-01-10T12:27:10;9.45;;;4.20;;
51036;SDS011;37064;59.346;18.058;2023-01-10T12:29:44;6.35;;;4.28;;
51036;SDS011;37064;59.346;18.058;2023-01-10T12:32:22;9.40;;;4.68;;
51036;SDS011;37064;59.346;18.058;2023-01-10T12:34:51;9.98;;;4.53;;
51036;SDS011;37064;59.346;18.058;2023-01-10T12:37:25;6.85;;;4.15;;
51036;SDS011;37064;59.346;18.058;2023-01-10T12:39:54;10.23;;;4.00;;
51036;SDS011;37064;59.346;18.058;2023-01-10T12:45:24;7.63;;;3.90;;
51036;SDS011;37064;59.346;18.058;2023-01-10T12:50:40;8.30;;;4.47;;
51036;SDS011;37064;59.346;18.058;2023-01-10T12:55:35;11.15;;;3.75;;
51036;SDS011;37064;59.346;18.058;2023-01-10T12:58:04;7.53;;;3.53;;
51036;SDS011;37064;59.346;18.058;2023-01-10T13:02:58;7.18;;;3.28;;
51036;SDS011;37064;59.346;18.058;2023-01-10T13:05:25;5.82;;;3.40;;
51036;SDS011;37064;59.346;18.058;2023-01-10T13:07:53;8.63;;;4.47;;
51036;SDS011;37064;59.346;18.058;2023-01-10T13:10:20;8.63;;;4.35;;
51036;SDS011;37064;59.346;18.058;2023-01-10T13:12:52;9.30;;;4.78;;
51036;SDS011;37064;59.346;18.058;2023-01-10T13:17:50;6.38;;;4.05;;
51036;SDS011;37064;59.346;18.058;2023-01-10T13:22:49;5.55;;;3.22;;
51036;SDS011;37064;59.346;18.058;2023-01-10T13:27:45;5.45;;;2.72;;
51036;SDS011;37064;59.346;18.058;2023-01-10T13:30:30;5.30;;;3.13;;
51036;SDS011;37064;59.346;18.058;2023-01-10T13:33:02;7.55;;;3.45;;
51036;SDS011;37064;59.346;18.058;2023-01-10T13:35:36;7.55;;;3.75;;
51036;SDS011;37064;59.346;18.058;2023-01-10T13:38:03;8.15;;;3.90;;
51036;SDS011;37064;59.346;18.058;2023-01-10T13:40:29;7.07;;;3.20;;
51036;SDS011;37064;59.346;18.058;2023-01-10T13:45:43;7.30;;;2.78;;
51036;SDS011;37064;59.346;18.058;2023-01-10T13:48:22;7.43;;;2.83;;
51036;SDS011;37064;59.346;18.058;2023-01-10T13:50:50;3.92;;;2.53;;
51036;SDS011;37064;59.346;18.058;2023-01-10T14:04:25;5.88;;;2.38;;
51036;SDS011;37064;59.346;18.058;2023-01-10T14:06:59;3.50;;;1.98;;
51036;SDS011;37064;59.346;18.058;2023-01-10T14:12:00;3.72;;;1.85;;
51036;SDS011;37064;59.346;18.058;2023-01-10T14:16:57;5.18;;;2.63;;
51036;SDS011;37064;59.346;18.058;2023-01-10T14:19:27;4.00;;;2.30;;
51036;SDS011;37064;59.346;18.058;2023-01-10T14:21:54;3.63;;;1.80;;
51036;SDS011;37064;59.346;18.058;2023-01-10T14:24:22;6.35;;;1.95;;
51036;SDS011;37064;59.346;18.058;2023-01-10T14:26:49;3.20;;;2.03;;
51036;SDS011;37064;59.346;18.058;2023-01-10T14:29:16;5.95;;;3.08;;
51036;SDS011;37064;59.346;18.058;2023-01-10T14:31:44;3.50;;;2.60;;
51036;SDS011;37064;59.346;18.058;2023-01-10T14:34:14;5.18;;;1.80;;
51036;SDS011;37064;59.346;18.058;2023-01-10T14:36:48;4.60;;;2.80;;
51036;SDS011;37064;59.346;18.058;2023-01-10T14:39:14;5.22;;;2.45;;
51036;SDS011;37064;59.346;18.058;2023-01-10T14:41:42;3.75;;;1.70;;
51036;SDS011;37064;59.346;18.058;2023-01-10T14:44:14;3.87;;;2.03;;
51036;SDS011;37064;59.346;18.058;2023-01-10T14:46:48;3.13;;;1.58;;
51036;SDS011;37064;59.346;18.058;2023-01-10T14:51:47;4.20;;;1.52;;
51036;SDS011;37064;59.346;18.058;2023-01-10T14:54:15;4.40;;;1.67;;
51036;SDS011;37064;59.346;18.058;2023-01-10T14:56:43;3.33;;;1.80;;
51036;SDS011;37064;59.346;18.058;2023-01-10T15:01:48;5.35;;;1.90;;
51036;SDS011;37064;59.346;18.058;2023-01-10T15:04:14;6.60;;;2.15;;
51036;SDS011;37064;59.346;18.058;2023-01-10T15:07:01;3.00;;;1.23;;
51036;SDS011;37064;59.346;18.058;2023-01-10T15:09:28;3.50;;;1.48;;
51036;SDS011;37064;59.346;18.058;2023-01-10T15:11:56;3.85;;;1.38;;
51036;SDS011;37064;59.346;18.058;2023-01-10T15:14:22;1.73;;;1.10;;
51036;SDS011;37064;59.346;18.058;2023-01-10T15:16:51;2.67;;;1.20;;
51036;SDS011;37064;59.346;18.058;2023-01-10T15:19:18;2.80;;;2.00;;
51036;SDS011;37064;59.346;18.058;2023-01-10T15:21:45;4.78;;;1.67;;
51036;SDS011;37064;59.346;18.058;2023-01-10T15:26:57;4.70;;;2.40;;
51036;SDS011;37064;59.346;18.058;2023-01-10T15:29:23;3.33;;;1.60;;
51036;SDS011;37064;59.346;18.058;2023-01-10T15:31:50;5.63;;;2.88;;
51036;SDS011;37064;59.346;18.058;2023-01-10T15:36:47;4.38;;;1.80;;
51036;SDS011;37064;59.346;18.058;2023-01-10T15:39:21;5.78;;;2.65;;
51036;SDS011;37064;59.346;18.058;2023-01-10T15:41:48;4.30;;;2.47;;
51036;SDS011;37064;59.346;18.058;2023-01-10T15:44:21;4.53;;;2.40;;
51036;SDS011;37064;59.346;18.058;2023-01-10T15:46:55;3.00;;;1.70;;
51036;SDS011;37064;59.346;18.058;2023-01-10T15:49:22;5.50;;;2.08;;
51036;SDS011;37064;59.346;18.058;2023-01-10T15:51:49;3.75;;;1.80;;
51036;SDS011;37064;59.346;18.058;2023-01-10T15:56:48;4.78;;;2.05;;
51036;SDS011;37064;59.346;18.058;2023-01-10T16:01:53;2.92;;;1.85;;
51036;SDS011;37064;59.346;18.058;2023-01-10T16:04:20;5.88;;;2.15;;
51036;SDS011;37064;59.346;18.058;2023-01-10T16:06:46;3.80;;;1.95;;
51036;SDS011;37064;59.346;18.058;2023-01-10T16:09:19;4.50;;;1.40;;
51036;SDS011;37064;59.346;18.058;2023-01-10T16:11:46;4.80;;;2.03;;
51036;SDS011;37064;59.346;18.058;2023-01-10T16:14:31;2.95;;;1.73;;
51036;SDS011;37064;59.346;18.058;2023-01-10T16:16:58;5.38;;;1.63;;
51036;SDS011;37064;59.346;18.058;2023-01-10T16:19:24;5.72;;;2.03;;
51036;SDS011;37064;59.346;18.058;2023-01-10T16:21:51;3.40;;;1.48;;
51036;SDS011;37064;59.346;18.058;2023-01-10T16:24:22;3.92;;;1.65;;
51036;SDS011;37064;59.346;18.058;2023-01-10T16:26:48;5.65;;;1.50;;
51036;SDS011;37064;59.346;18.058;2023-01-10T16:29:15;3.30;;;2.05;;
51036;SDS011;37064;59.346;18.058;2023-01-10T16:31:41;6.30;;;1.80;;
51036;SDS011;37064;59.346;18.058;2023-01-10T16:34:07;6.30;;;1.95;;
51036;SDS011;37064;59.346;18.058;2023-01-10T16:36:34;8.18;;;2.22;;
51036;SDS011;37064;59.346;18.058;2023-01-10T16:39:03;3.33;;;2.13;;
51036;SDS011;37064;59.346;18.058;2023-01-10T16:41:30;4.18;;;2.03;;
51036;SDS011;37064;59.346;18.058;2023-01-10T16:44:15;4.93;;;1.40;;